createdAt,value
2022-09-17T00:01:35.046Z,3.63
2022-09-17T00:04:05.541Z,1.80
2022-09-17T00:06:36.247Z,1.98
2022-09-17T00:09:08.203Z,6.32
2022-09-17T00:11:38.264Z,3.55
2022-09-17T00:14:09.470Z,3.67
2022-09-17T00:16:39.772Z,2.90
2022-09-17T00:19:11.783Z,3.63
2022-09-17T00:21:39.840Z,1.40
2022-09-17T00:24:08.818Z,1.10
2022-09-17T00:26:37.425Z,5.30
2022-09-17T00:29:07.620Z,5.05
2022-09-17T00:31:36.489Z,3.95
2022-09-17T00:34:06.636Z,4.80
2022-09-17T00:36:36.950Z,4.22
2022-09-17T00:39:06.980Z,4.13
2022-09-17T00:41:37.273Z,5.05
2022-09-17T00:44:38.467Z,5.57
2022-09-17T00:47:13.679Z,2.95
2022-09-17T00:49:42.157Z,3.58
2022-09-17T00:52:14.457Z,1.98
2022-09-17T00:54:47.538Z,2.22
2022-09-17T00:57:16.080Z,6.10
2022-09-17T00:59:44.243Z,4.63
2022-09-17T01:02:14.133Z,1.60
2022-09-17T01:04:43.055Z,2.15
2022-09-17T01:07:28.048Z,3.42
2022-09-17T01:10:04.338Z,2.80
2022-09-17T01:12:44.804Z,3.90
2022-09-17T01:15:25.459Z,1.95
2022-09-17T01:18:06.905Z,3.50
2022-09-17T01:21:11.408Z,3.97
2022-09-17T01:24:07.412Z,4.45
2022-09-17T01:26:55.985Z,1.70
2022-09-17T01:29:45.505Z,2.60
2022-09-17T01:32:22.637Z,1.23
2022-09-17T01:34:57.820Z,3.50
2022-09-17T01:37:32.388Z,2.15
2022-09-17T01:40:07.558Z,1.33
2022-09-17T01:42:41.041Z,2.78
2022-09-17T01:45:15.659Z,1.30
2022-09-17T01:47:49.113Z,1.38
2022-09-17T01:50:21.132Z,2.17
2022-09-17T01:52:52.424Z,1.42
2022-09-17T01:55:23.744Z,2.40
2022-09-17T01:57:57.047Z,2.03
2022-09-17T02:00:25.280Z,5.53
2022-09-17T02:02:59.678Z,2.22
2022-09-17T02:05:32.063Z,2.33
2022-09-17T02:08:07.727Z,3.30
2022-09-17T02:10:39.303Z,3.38
2022-09-17T02:13:11.491Z,1.60
2022-09-17T02:15:44.819Z,1.50
2022-09-17T02:18:23.835Z,1.20
2022-09-17T02:20:56.985Z,2.83
2022-09-17T02:23:30.782Z,5.18
2022-09-17T02:26:03.736Z,2.38
2022-09-17T02:28:41.468Z,2.78
2022-09-17T02:31:34.414Z,1.65
2022-09-17T02:34:06.762Z,1.42
2022-09-17T02:36:35.425Z,2.35
2022-09-17T02:39:05.711Z,3.03
2022-09-17T02:41:46.190Z,3.38
2022-09-17T02:44:26.445Z,2.45
2022-09-17T02:47:19.953Z,2.47
2022-09-17T02:50:04.165Z,1.30
2022-09-17T02:52:43.981Z,3.10
2022-09-17T02:55:19.044Z,3.42
2022-09-17T02:57:54.197Z,5.00
2022-09-17T03:00:24.249Z,2.50
2022-09-17T03:02:57.479Z,3.65
2022-09-17T03:05:28.898Z,2.97
2022-09-17T03:07:57.536Z,4.30
2022-09-17T03:10:27.945Z,0.98
2022-09-17T03:12:56.440Z,1.98
2022-09-17T03:15:24.548Z,3.25
2022-09-17T03:17:53.551Z,2.38
2022-09-17T03:20:22.311Z,1.75
2022-09-17T03:22:52.643Z,2.28
2022-09-17T03:25:20.724Z,2.75
2022-09-17T03:27:48.951Z,4.10
2022-09-17T03:30:17.181Z,2.10
2022-09-17T03:32:45.243Z,1.35
2022-09-17T03:35:13.528Z,7.28
2022-09-17T03:37:41.519Z,1.83
2022-09-17T03:40:11.544Z,4.35
2022-09-17T03:42:39.860Z,3.20
2022-09-17T03:45:09.580Z,1.88
2022-09-17T03:47:38.622Z,3.17
2022-09-17T03:50:08.227Z,1.33
2022-09-17T03:52:36.419Z,1.52
2022-09-17T03:55:05.328Z,0.80
2022-09-17T03:57:35.015Z,3.65
2022-09-17T04:00:03.415Z,1.10
2022-09-17T04:02:31.905Z,1.45
2022-09-17T04:05:00.164Z,0.88
2022-09-17T04:07:28.188Z,2.95
2022-09-17T04:09:56.299Z,2.90
2022-09-17T04:12:24.941Z,1.52
2022-09-17T04:14:54.326Z,3.17
2022-09-17T04:17:22.487Z,3.45
2022-09-17T04:19:51.097Z,3.55
2022-09-17T04:22:19.132Z,3.55
2022-09-17T04:24:47.153Z,3.60
2022-09-17T04:27:15.428Z,2.05
2022-09-17T04:29:43.462Z,2.35
2022-09-17T04:32:12.922Z,3.00
2022-09-17T04:34:41.378Z,1.85
2022-09-17T04:37:09.463Z,2.70
2022-09-17T04:39:38.236Z,1.60
2022-09-17T04:42:06.616Z,2.75
2022-09-17T04:44:34.851Z,2.38
2022-09-17T04:47:02.877Z,3.30
2022-09-17T04:49:32.963Z,1.35
2022-09-17T04:52:01.010Z,1.92
2022-09-17T04:54:29.120Z,1.08
2022-09-17T04:56:57.432Z,2.53
2022-09-17T04:59:25.476Z,4.18
2022-09-17T05:01:53.585Z,1.70
2022-09-17T05:04:21.920Z,2.60
2022-09-17T05:06:51.521Z,2.80
2022-09-17T05:09:19.881Z,2.00
2022-09-17T05:11:48.268Z,3.77
2022-09-17T05:14:16.350Z,3.92
2022-09-17T05:16:44.398Z,1.17
2022-09-17T05:19:12.659Z,2.92
2022-09-17T05:21:40.649Z,2.15
2022-09-17T05:24:10.296Z,3.08
2022-09-17T05:26:38.510Z,1.52
2022-09-17T05:29:06.699Z,2.30
2022-09-17T05:31:34.854Z,2.92
2022-09-17T05:34:03.834Z,3.15
2022-09-17T05:36:32.033Z,2.55
2022-09-17T05:39:00.097Z,3.05
2022-09-17T05:41:29.777Z,2.03
2022-09-17T05:46:25.698Z,1.58
2022-09-17T05:48:56.883Z,2.53
2022-09-17T05:51:25.249Z,0.70
2022-09-17T05:53:55.485Z,2.75
2022-09-17T05:56:24.124Z,1.13
2022-09-17T05:58:56.681Z,2.78
2022-09-17T06:01:25.325Z,1.48
2022-09-17T06:03:54.245Z,7.03
2022-09-17T06:06:22.301Z,2.30
2022-09-17T06:08:50.510Z,4.05
2022-09-17T06:11:18.521Z,2.85
2022-09-17T06:13:46.599Z,2.42
2022-09-17T06:16:16.262Z,6.22
2022-09-17T06:21:12.226Z,3.50
2022-09-17T06:23:40.482Z,2.72
2022-09-17T06:26:10.240Z,1.88
2022-09-17T06:28:41.724Z,4.20
2022-09-17T06:31:11.778Z,3.42
2022-09-17T06:33:41.396Z,2.58
2022-09-17T06:36:14.688Z,1.80
2022-09-17T06:38:43.845Z,3.80
2022-09-17T06:41:12.531Z,1.83
2022-09-17T06:43:40.584Z,4.00
2022-09-17T06:46:09.389Z,2.90
2022-09-17T06:48:38.916Z,4.32
2022-09-17T06:51:11.471Z,3.92
2022-09-17T06:53:40.560Z,5.20
2022-09-17T06:56:10.395Z,4.32
2022-09-17T06:58:41.579Z,5.38
2022-09-17T07:01:11.228Z,2.85
2022-09-17T07:03:39.374Z,1.90
2022-09-17T07:06:11.266Z,2.22
2022-09-17T07:08:40.202Z,1.98
2022-09-17T07:11:09.268Z,1.08
2022-09-17T07:13:37.643Z,1.77
2022-09-17T07:16:07.886Z,1.70
2022-09-17T07:18:37.114Z,2.55
2022-09-17T07:21:07.054Z,2.72
2022-09-17T07:23:38.252Z,2.05
2022-09-17T07:26:08.366Z,2.38
2022-09-17T07:28:39.485Z,2.00
2022-09-17T07:31:11.269Z,1.83
2022-09-17T07:33:42.507Z,2.55
2022-09-17T07:36:13.347Z,2.67
2022-09-17T07:38:43.013Z,0.98
2022-09-17T07:41:13.404Z,1.98
2022-09-17T07:43:42.613Z,6.57
2022-09-17T07:46:15.439Z,2.58
2022-09-17T07:48:44.154Z,2.35
2022-09-17T07:51:17.121Z,2.63
2022-09-17T07:53:48.003Z,1.33
2022-09-17T07:56:16.332Z,2.55
2022-09-17T07:58:44.449Z,2.13
2022-09-17T08:01:16.929Z,2.80
2022-09-17T08:03:49.727Z,2.15
2022-09-17T08:06:19.987Z,1.38
2022-09-17T08:08:50.604Z,3.30
2022-09-17T08:11:44.713Z,3.53
2022-09-17T08:14:11.652Z,2.17
2022-09-17T08:16:40.774Z,3.35
2022-09-17T08:19:13.223Z,2.67
2022-09-17T08:21:44.918Z,1.10
2022-09-17T08:24:14.612Z,1.88
2022-09-17T08:26:43.352Z,0.82
2022-09-17T08:29:11.767Z,2.53
2022-09-17T08:31:40.115Z,1.35
2022-09-17T08:34:10.530Z,2.45
2022-09-17T08:37:04.196Z,2.13
2022-09-17T08:39:34.002Z,2.55
2022-09-17T08:42:10.867Z,1.30
2022-09-17T08:44:44.192Z,3.20
2022-09-17T08:47:18.632Z,1.85
2022-09-17T08:49:52.558Z,4.60
2022-09-17T08:52:50.421Z,3.38
2022-09-17T08:55:37.055Z,1.95
2022-09-17T08:58:33.670Z,2.85
2022-09-17T09:01:13.358Z,2.47
2022-09-17T09:03:56.871Z,2.72
2022-09-17T09:06:31.132Z,2.72
2022-09-17T09:09:05.016Z,2.65
2022-09-17T09:11:36.602Z,2.22
2022-09-17T09:14:14.041Z,1.58
2022-09-17T09:16:45.282Z,1.65
2022-09-17T09:19:22.681Z,3.67
2022-09-17T09:22:04.923Z,2.03
2022-09-17T09:24:42.669Z,2.65
2022-09-17T09:27:19.568Z,3.25
2022-09-17T09:30:02.232Z,3.28
2022-09-17T09:32:48.907Z,2.58
2022-09-17T09:35:20.453Z,2.15
2022-09-17T09:37:57.010Z,1.38
2022-09-17T09:40:35.055Z,2.95
2022-09-17T09:43:12.873Z,2.15
2022-09-17T09:46:17.614Z,3.85
2022-09-17T09:49:01.393Z,1.45
2022-09-17T09:51:44.733Z,1.35
2022-09-17T09:54:31.205Z,3.22
2022-09-17T09:57:04.328Z,2.13
2022-09-17T09:59:36.047Z,2.25
2022-09-17T10:02:05.073Z,2.78
2022-09-17T10:04:33.653Z,2.08
2022-09-17T10:07:05.131Z,1.20
2022-09-17T10:09:35.388Z,5.13
2022-09-17T10:12:07.450Z,0.93
2022-09-17T10:14:38.590Z,1.23
2022-09-17T10:17:19.656Z,1.33
2022-09-17T10:20:11.882Z,2.22
2022-09-17T10:22:42.638Z,1.20
2022-09-17T10:25:26.254Z,0.65
2022-09-17T10:27:55.023Z,2.08
2022-09-17T10:30:26.098Z,1.83
2022-09-17T10:33:17.526Z,1.30
2022-09-17T10:35:57.750Z,4.38
2022-09-17T10:38:31.342Z,1.05
2022-09-17T10:41:14.897Z,1.40
2022-09-17T10:43:43.956Z,1.38
2022-09-17T10:46:17.846Z,0.40
2022-09-17T10:48:52.341Z,3.28
2022-09-17T10:51:25.058Z,3.05
2022-09-17T10:54:23.842Z,0.57
2022-09-17T10:56:56.264Z,1.50
2022-09-17T10:59:44.848Z,2.58
2022-09-17T11:02:46.831Z,0.70
2022-09-17T11:05:34.184Z,1.27
2022-09-17T11:08:10.490Z,0.32
2022-09-17T11:10:47.338Z,0.30
2022-09-17T11:13:29.196Z,1.40
2022-09-17T11:16:13.447Z,0.43
2022-09-17T11:18:46.391Z,1.98
2022-09-17T11:21:40.760Z,3.20
2022-09-17T11:24:34.935Z,1.95
2022-09-17T11:27:13.475Z,2.05
2022-09-17T11:29:58.193Z,1.00
2022-09-17T11:33:18.230Z,1.75
2022-09-17T11:35:51.554Z,0.52
2022-09-17T11:38:25.917Z,1.02
2022-09-17T11:41:05.322Z,0.82
2022-09-17T11:43:38.953Z,0.50
2022-09-17T11:46:12.546Z,2.95
2022-09-17T11:48:47.842Z,1.38
2022-09-17T11:51:29.247Z,0.60
2022-09-17T11:54:03.296Z,2.42
2022-09-17T11:56:37.327Z,2.08
2022-09-17T11:59:16.255Z,0.85
2022-09-17T12:01:59.237Z,1.10
2022-09-17T12:04:40.757Z,1.63
2022-09-17T12:07:47.456Z,0.55
2022-09-17T12:10:55.992Z,1.15
2022-09-17T12:13:43.158Z,0.82
2022-09-17T12:16:17.685Z,2.00
2022-09-17T12:18:57.094Z,0.77
2022-09-17T12:21:31.749Z,1.27
2022-09-17T12:24:09.651Z,0.50
2022-09-17T12:27:05.663Z,1.67
2022-09-17T12:29:48.226Z,0.95
2022-09-17T12:32:39.406Z,1.35
2022-09-17T12:35:29.728Z,2.22
2022-09-17T12:38:25.839Z,1.65
2022-09-17T12:41:17.991Z,0.30
2022-09-17T12:44:02.043Z,1.38
2022-09-17T12:46:56.394Z,0.93
2022-09-17T12:50:09.257Z,0.20
2022-09-17T12:52:52.683Z,2.10
2022-09-17T12:55:47.408Z,0.20
2022-09-17T12:58:44.917Z,1.20
2022-09-17T13:01:58.736Z,0.85
2022-09-17T13:05:02.926Z,0.45
2022-09-17T13:07:52.861Z,1.25
2022-09-17T13:10:43.593Z,2.75
2022-09-17T13:13:29.021Z,0.30
2022-09-17T13:16:13.304Z,1.05
2022-09-17T13:19:14.920Z,1.63
2022-09-17T13:21:50.852Z,0.77
2022-09-17T13:24:21.805Z,1.80
2022-09-17T13:26:52.438Z,0.90
2022-09-17T13:29:58.068Z,1.65
2022-09-17T13:33:04.080Z,1.75
2022-09-17T13:35:54.232Z,1.30
2022-09-17T13:38:24.821Z,1.45
2022-09-17T13:40:54.375Z,1.20
2022-09-17T13:43:28.072Z,1.40
2022-09-17T13:46:24.199Z,0.95
2022-09-17T13:48:59.033Z,3.70
2022-09-17T13:51:53.386Z,1.63
2022-09-17T13:54:24.469Z,3.28
2022-09-17T13:57:15.722Z,1.50
2022-09-17T13:59:55.857Z,3.67
2022-09-17T14:02:41.432Z,1.70
2022-09-17T14:05:41.068Z,0.80
2022-09-17T14:08:29.517Z,3.40
2022-09-17T14:11:03.421Z,1.50
2022-09-17T14:13:45.515Z,5.82
2022-09-17T14:16:37.362Z,1.42
2022-09-17T14:19:37.021Z,1.02
2022-09-17T14:22:16.583Z,2.75
2022-09-17T14:24:50.457Z,0.85
2022-09-17T14:27:50.442Z,2.22
2022-09-17T14:30:21.710Z,2.42
2022-09-17T14:33:00.372Z,2.95
2022-09-17T14:35:35.233Z,1.60
2022-09-17T14:38:11.949Z,0.65
2022-09-17T14:40:44.987Z,2.13
2022-09-17T14:43:20.487Z,0.88
2022-09-17T14:45:53.017Z,1.17
2022-09-17T14:48:32.105Z,0.70
2022-09-17T14:51:28.390Z,2.10
2022-09-17T14:54:17.251Z,0.88
2022-09-17T14:56:51.226Z,1.20
2022-09-17T14:59:27.012Z,4.15
2022-09-17T15:01:55.560Z,2.58
2022-09-17T15:04:26.141Z,0.63
2022-09-17T15:06:54.954Z,0.88
2022-09-17T15:09:27.828Z,1.58
2022-09-17T15:11:59.609Z,1.58
2022-09-17T15:14:31.257Z,2.20
2022-09-17T15:17:02.039Z,5.72
2022-09-17T15:19:35.993Z,1.63
2022-09-17T15:22:08.415Z,1.48
2022-09-17T15:24:43.945Z,0.40
2022-09-17T15:27:17.292Z,3.08
2022-09-17T15:29:48.859Z,1.77
2022-09-17T15:32:17.085Z,2.97
2022-09-17T15:34:45.413Z,1.95
2022-09-17T15:37:20.421Z,2.50
2022-09-17T15:39:52.231Z,3.60
2022-09-17T15:42:24.029Z,2.75
2022-09-17T15:44:52.324Z,1.83
2022-09-17T15:47:36.963Z,2.80
2022-09-17T15:50:14.953Z,2.92
2022-09-17T15:52:43.356Z,3.95
2022-09-17T15:55:34.847Z,2.60
2022-09-17T15:58:06.277Z,0.93
2022-09-17T16:00:34.819Z,1.00
2022-09-17T16:03:50.404Z,1.63
2022-09-17T16:06:39.782Z,2.60
2022-09-17T16:09:40.080Z,1.65
2022-09-17T16:12:14.344Z,3.00
2022-09-17T16:14:49.425Z,1.90
2022-09-17T16:17:43.763Z,1.90
2022-09-17T16:20:24.235Z,2.55
2022-09-17T16:22:54.987Z,2.22
2022-09-17T16:25:26.131Z,1.50
2022-09-17T16:27:58.817Z,3.45
2022-09-17T16:30:27.534Z,3.47
2022-09-17T16:32:55.815Z,1.88
2022-09-17T16:35:25.865Z,2.67
2022-09-17T16:37:56.176Z,3.47
2022-09-17T16:40:33.944Z,3.38
2022-09-17T16:43:04.993Z,4.05
2022-09-17T16:45:33.357Z,2.47
2022-09-17T16:48:01.702Z,6.07
2022-09-17T16:50:30.306Z,2.23
2022-09-17T16:53:04.168Z,2.75
2022-09-17T16:55:34.240Z,2.50
2022-09-17T16:58:04.318Z,2.35
2022-09-17T17:00:32.625Z,4.97
2022-09-17T17:03:01.253Z,5.90
2022-09-17T17:05:29.555Z,2.58
2022-09-17T17:08:01.204Z,2.58
2022-09-17T17:10:31.638Z,5.45
2022-09-17T17:12:59.730Z,5.50
2022-09-17T17:15:30.408Z,4.30
2022-09-17T17:17:59.308Z,5.20
2022-09-17T17:20:27.645Z,3.40
2022-09-17T17:22:56.285Z,3.30
2022-09-17T17:25:24.832Z,10.02
2022-09-17T17:28:00.061Z,3.60
2022-09-17T17:30:34.723Z,6.18
2022-09-17T17:33:04.145Z,6.88
2022-09-17T17:35:32.592Z,4.93
2022-09-17T17:38:00.682Z,3.90
2022-09-17T17:40:28.900Z,5.78
2022-09-17T17:42:57.231Z,4.30
2022-09-17T17:45:25.425Z,7.03
2022-09-17T17:47:54.954Z,4.97
2022-09-17T17:50:23.429Z,3.70
2022-09-17T17:52:53.056Z,3.42
2022-09-17T17:55:21.286Z,3.67
2022-09-17T17:57:49.636Z,3.27
2022-09-17T18:00:18.431Z,2.80
2022-09-17T18:02:46.743Z,4.78
2022-09-17T18:05:16.744Z,5.07
2022-09-17T18:07:45.582Z,6.13
2022-09-17T18:10:14.105Z,7.68
2022-09-17T18:12:50.456Z,8.60
2022-09-17T18:15:20.748Z,5.18
2022-09-17T18:17:50.211Z,10.77
2022-09-17T18:20:22.080Z,8.90
2022-09-17T18:22:51.887Z,6.03
2022-09-17T18:25:20.089Z,6.28
2022-09-17T18:27:49.243Z,7.80
2022-09-17T18:32:49.005Z,3.35
2022-09-17T18:35:20.071Z,5.50
2022-09-17T18:37:50.045Z,8.55
2022-09-17T18:40:19.002Z,10.25
2022-09-17T18:42:49.792Z,8.43
2022-09-17T18:45:19.354Z,6.57
2022-09-17T18:47:49.502Z,7.85
2022-09-17T18:50:18.041Z,8.23
2022-09-17T18:52:47.059Z,5.25
2022-09-17T18:55:17.660Z,4.57
2022-09-17T18:57:51.274Z,5.03
2022-09-17T19:00:20.572Z,3.28
2022-09-17T19:02:48.826Z,6.47
2022-09-17T19:05:17.942Z,8.13
2022-09-17T19:07:47.012Z,6.40
2022-09-17T19:10:16.930Z,6.95
2022-09-17T19:12:45.056Z,10.27
2022-09-17T19:17:42.417Z,3.72
2022-09-17T19:20:10.682Z,6.32
2022-09-17T19:22:38.980Z,8.80
2022-09-17T19:25:09.572Z,10.05
2022-09-17T19:27:39.402Z,6.47
2022-09-17T19:30:08.945Z,9.73
2022-09-17T19:32:41.258Z,5.68
2022-09-17T19:35:11.595Z,4.82
2022-09-17T19:37:41.900Z,7.22
2022-09-17T19:40:11.937Z,11.50
2022-09-17T19:42:41.875Z,6.35
2022-09-17T19:47:38.854Z,5.97
2022-09-17T19:50:07.677Z,7.85
2022-09-17T19:52:36.122Z,7.53
2022-09-17T19:55:04.459Z,8.45
2022-09-17T19:57:32.860Z,9.48
2022-09-17T20:00:02.723Z,12.35
2022-09-17T20:02:30.908Z,9.68
2022-09-17T20:04:59.502Z,9.90
2022-09-17T20:07:30.113Z,7.03
2022-09-17T20:10:00.185Z,9.32
2022-09-17T20:12:28.741Z,8.27
2022-09-17T20:14:56.930Z,7.70
2022-09-17T20:17:26.773Z,6.63
2022-09-17T20:19:55.240Z,4.78
2022-09-17T20:22:23.386Z,7.93
2022-09-17T20:24:52.621Z,9.43
2022-09-17T20:27:21.594Z,10.43
2022-09-17T20:29:49.748Z,7.10
2022-09-17T20:32:17.909Z,6.93
2022-09-17T20:34:47.677Z,10.32
2022-09-17T20:37:16.112Z,11.68
2022-09-17T20:39:45.422Z,9.02
2022-09-17T20:42:13.851Z,10.00
2022-09-17T20:44:41.909Z,8.40
2022-09-17T20:47:11.104Z,9.18
2022-09-17T20:49:39.797Z,7.15
2022-09-17T20:52:09.407Z,8.75
2022-09-17T20:57:05.712Z,5.70
2022-09-17T20:59:50.891Z,7.25
2022-09-17T21:02:22.330Z,13.45
2022-09-17T21:04:51.190Z,4.93
2022-09-17T21:07:21.809Z,12.30
2022-09-17T21:09:50.136Z,10.57
2022-09-17T21:12:18.400Z,10.27
2022-09-17T21:14:46.496Z,9.32
2022-09-17T21:17:14.986Z,11.70
2022-09-17T21:19:48.525Z,7.88
2022-09-17T21:22:17.014Z,8.80
2022-09-17T21:24:48.903Z,7.38
2022-09-17T21:27:17.272Z,10.60
2022-09-17T21:29:45.642Z,11.63
2022-09-17T21:32:13.815Z,9.93
2022-09-17T21:34:42.532Z,9.40
2022-09-17T21:37:10.784Z,5.90
2022-09-17T21:39:39.152Z,6.22
2022-09-17T21:42:09.159Z,8.17
2022-09-17T21:44:37.427Z,6.05
2022-09-17T21:47:09.143Z,8.73
2022-09-17T21:49:42.328Z,10.50
2022-09-17T21:52:10.604Z,6.43
2022-09-17T21:54:38.960Z,8.02
2022-09-17T21:57:08.752Z,8.95
2022-09-17T22:02:08.255Z,8.35
2022-09-17T22:04:37.029Z,7.97
2022-09-17T22:07:05.329Z,11.73
2022-09-17T22:09:33.451Z,5.28
2022-09-17T22:12:02.004Z,6.15
2022-09-17T22:14:31.797Z,4.63
2022-09-17T22:17:00.067Z,4.80
2022-09-17T22:19:28.715Z,6.40
2022-09-17T22:21:57.318Z,7.45
2022-09-17T22:24:26.759Z,6.45
2022-09-17T22:26:58.044Z,9.02
2022-09-17T22:29:28.548Z,9.32
2022-09-17T22:31:58.809Z,9.77
2022-09-17T22:34:27.486Z,9.00
2022-09-17T22:36:55.671Z,6.93
2022-09-17T22:39:24.141Z,8.68
2022-09-17T22:41:52.606Z,8.90
2022-09-17T22:44:21.361Z,9.05
2022-09-17T22:46:51.693Z,7.80
2022-09-17T22:49:21.641Z,7.63
2022-09-17T22:51:49.946Z,7.25
2022-09-17T22:54:20.162Z,8.23
2022-09-17T22:56:49.400Z,6.57
2022-09-17T22:59:18.293Z,4.78
2022-09-17T23:04:15.315Z,4.10
2022-09-17T23:06:52.618Z,3.92
2022-09-17T23:09:22.182Z,5.30
2022-09-17T23:11:50.408Z,4.70
2022-09-17T23:14:18.627Z,6.15
2022-09-17T23:16:48.965Z,6.47
2022-09-17T23:19:21.531Z,6.25
2022-09-17T23:21:51.488Z,3.80
2022-09-17T23:24:21.778Z,6.38
2022-09-17T23:26:50.864Z,4.18
2022-09-17T23:29:19.926Z,6.03
2022-09-17T23:31:48.238Z,5.72
2022-09-17T23:34:16.549Z,5.55
2022-09-17T23:36:45.019Z,7.20
2022-09-17T23:39:14.769Z,9.20
2022-09-17T23:41:45.670Z,4.63
2022-09-17T23:44:16.055Z,8.13
2022-09-17T23:46:46.106Z,8.43
2022-09-17T23:49:15.764Z,5.78
2022-09-17T23:51:46.869Z,6.93
2022-09-17T23:54:16.822Z,6.90
2022-09-17T23:56:45.160Z,6.60
2022-09-17T23:59:13.317Z,3.58
